KMKL/MKL METAR and TAF weather

Enter ICAO airport designator
Station Type Date Time Source
KMKL METAR 2019/12/09 05:53 UTC NOAA

KMKL 090553Z AUTO 17010KT 10SM BKN021 14/11 A2989 RMK AO2 SLP120 T01440111 10144 20139 401670006 58021


Station Type Date Time Source
KMKL Decoded METAR 2019/12/09 05:53 UTC NOAA

JACKSON MCKELLAR-SIPES RGNL, TN, United States (KMKL) 35-36N 088-55W 128M
Dec 09, 2019 - 12:53 AM EST / 2019.12.09 0553 UTC
Wind: from the S (170 degrees) at 12 MPH (10 KT):0
Visibility: 10 mile(s):0
Sky conditions: mostly cloudy
Temperature: 57.9 F (14.4 C)
Dew Point: 52.0 F (11.1 C)
Relative Humidity: 80%
Pressure (altimeter): 29.89 in. Hg (1012 hPa)
Pressure tendency: 0.06 inches (2.1 hPa) lower than three hours ago
ob: KMKL 090553Z AUTO 17010KT 10SM BKN021 14/11 A2989 RMK AO2 SLP120 T01440111 10144 20139 401670006 58021
cycle: 6

Station Type Date Time Source
KMKL TAF 2019/12/09 06:42 UTC NOAA

TAF KMKL 090541Z 0906/1006 19012G19KT P6SM BKN020 WS020/21050KT
FM091500 20014G25KT P6SM VCSH BKN020
FM091800 22015G21KT P6SM OVC015
FM100100 25012KT P6SM VCSH OVC050
FM100400 29011KT P6SM VCSH OVC050

Example: see airport list